Cove City, North Carolina
Current Conditions -  °F | °C
As of 12:54 PM on Sunday 25 Jan 2015 (Local Time) from KEWN Reporting Station
Clear Clear  
Wind Chill: 53°   Ceiling: Unl
Heat Index: 53°   Visibility: 10mi
Dew Point: 30°   Wind: 3mph
Humidity: 41%   Direction: NA
Pressure: 29.95"   Gusts: NA
Location:  35.19°N, 77.32°W
Report Text: KEWN 251754Z VRB03KT 10SM CLR 12/M01 A2995 RMK AO2 SLP141 T01171011 10122 20006 56020
Loading
Personal Weather Stations






























Interactive Weather Map New forecast layout! Learn more

10-Day Weather Forecast

Advertisements
Track Severe Weather on mobile